Pine River, Wisconsin
Current Conditions -  °F | °C
As of 2:26 PM on Monday 26 Jan 2015 (Local Time) from KY50 Reporting Station
Light Snow Light Snow  
Wind Chill: 14°   Ceiling: 900
Heat Index: 23°   Visibility: 1.7mi
Dew Point: 21°   Wind: 8mph
Humidity: 93%   Direction: 130°SE
Pressure: 29.8"   Gusts: NA
Location:  44.15°N, 89.08°W
Report Text: KY50 262026Z AUTO 13007KT 1 3/4SM -SN BR OVC009 M05/M06 A2980 RMK AO2 TSNO CIG 005V013 UPB04E05FZRAB01E03SNB03E04B05 P0000
Loading
Personal Weather Stations






























Interactive Weather Map New forecast layout! Learn more

10-Day Weather Forecast

Advertisements
Track Severe Weather on mobile